LTCN

Details ICAO LTCN (KCM)
Name KAHRAMANMARAS
Region Turkey
Timezone Europe/Istanbul (UTC+3.0)
Plans Departing 12
Arriving 24
Stats Elevation 1,723 ft / 525 m (AMSL)
Location 37.538967° 36.953411°
Runways 1
Magnetic Variation 5.504° E
Sunrise 2017-12-12 04:38:57 UTC / 2017-12-12 07:38:57 Local
Sunset 2017-12-12 14:15:40 UTC / 2017-12-12 17:15:40 Local
Advertisement - Login to hide

Runways

ID Width Length Bearing (true) Bearing (mag) Surface Threshold Offset Overrun Length
08 98 ft / 30 m 7,533 ft / 2,296 m 75.46° 69.96° Asphalt 0 ft / 0 m 196 ft / 60 m
26 98 ft / 30 m 7,533 ft / 2,296 m 255.48° 249.98° Asphalt 984 ft / 300 m 196 ft / 60 m

Map

Weather


0- 5 10 15 20 25 30 35+ Temperature / ° C

Clouds and Precipitation
Forecast for 2017-12-12 18:00 UTC. Updated an hour ago

Ground ~20,000 ft ~40,000 ft Winds

METAR

LTCN 121550Z 08006KT CAVOK 09/03 Q1024 NOSIG

TAF

Not found

Frequencies

Tower 118.75 MHz TWR
Warning: Do not use this data for real-world aviation or navigation. No guarantee of current accuracy is given.